»·PEaware :: AAL243 KPSP-KABQ

AAL243 :: KPSP-KABQ

FLIGHT INFORMATION

Flight Status: Arrived
Operator:
American Airlines
More flights by this operator :: More flights under this callsign
Pilot: Cullen C. (7783)
Aircraft: AIRBUS A320
(A320)
More flights by this aircraft type
Origin: KPSP Palm Springs Intl
United States
Destination: KABQ Albuquerque Intl Sunport
United States
More flights between these airports :: More routes between these airports
Route: +CATH1 PSP BLH SJN LAVAN3
File this flight plan on PilotEdge
Remarks:
Altitude:
(Current/Filed)
35,000ft
Speed:
(Current/Filed)
455kts
Departed: 18-Dec-17 05:32 PM
Arrived: 18-Dec-17 06:51 PM
Distance/Time
Traveled:
495nm/1:18
Distance/Time
To Go:
Arrived

Flight Plot

Page will automatically refresh every two minutes.

Flight plan parsing failed; only flown route is shown


Map Options




Map Legend


Flown Route
Filed Route
Departure Airport
Arrival Airport
Navaid (VOR, NDB)
Fix

Horizontal Profiles

Position Reports

Time Latitude Longitude Heading Altitude Ground
Speed
18-Dec-17 16:59 33.822746 -116.505868 292 486ft 0kts
18-Dec-17 17:00 33.822746 -116.505868 292 486ft 0kts
18-Dec-17 17:01 33.822746 -116.505868 292 486ft 0kts
18-Dec-17 17:02 33.822746 -116.505868 292 486ft 0kts
18-Dec-17 17:03 33.822746 -116.505868 292 486ft 0kts
18-Dec-17 17:04 33.822746 -116.505868 292 486ft 0kts
18-Dec-17 17:05 33.822746 -116.505868 292 486ft 0kts
18-Dec-17 17:06 33.822746 -116.505868 292 486ft 0kts
18-Dec-17 17:07 33.822746 -116.505868 292 486ft 0kts
18-Dec-17 17:08 33.822746 -116.505868 292 486ft 0kts
18-Dec-17 17:09 33.822746 -116.505868 292 486ft 0kts
18-Dec-17 17:10 33.822746 -116.505868 292 486ft 0kts
18-Dec-17 17:11 33.822746 -116.505868 292 486ft 0kts
18-Dec-17 17:12 33.822746 -116.505868 292 486ft 0kts
18-Dec-17 17:13 33.822746 -116.505868 292 486ft 0kts
18-Dec-17 17:14 33.822746 -116.505868 292 486ft 0kts
18-Dec-17 17:15 33.822746 -116.505868 292 486ft 0kts
18-Dec-17 17:16 33.822746 -116.505868 292 486ft 0kts
18-Dec-17 17:17 33.822746 -116.505868 292 486ft 0kts
18-Dec-17 17:18 33.822746 -116.505868 292 486ft 0kts
18-Dec-17 17:19 33.822746 -116.505868 292 486ft 0kts
18-Dec-17 17:20 33.822746 -116.505868 292 486ft 0kts
18-Dec-17 17:21 33.822746 -116.505868 292 486ft 0kts
18-Dec-17 17:22 33.822746 -116.505868 292 486ft 0kts
18-Dec-17 17:23 33.822746 -116.505868 292 486ft 0kts
18-Dec-17 17:24 33.822746 -116.505867 292 486ft 0kts
18-Dec-17 17:25 33.822675 -116.505658 301 486ft 2kts
18-Dec-17 17:26 33.822182 -116.505641 56 486ft 2kts
18-Dec-17 17:27 33.822142 -116.505717 52 486ft 0kts
18-Dec-17 17:28 33.822143 -116.505717 52 486ft 0kts
18-Dec-17 17:29 33.822439 -116.505244 52 486ft 8kts
18-Dec-17 17:30 33.822947 -116.504402 59 486ft 3kts
18-Dec-17 17:31 33.819937 -116.501036 141 486ft 22kts
18-Dec-17 17:32 33.818523 -116.499150 89 486ft 0kts
18-Dec-17 17:33 33.818523 -116.499150 89 486ft 0kts
18-Dec-17 17:34 33.818523 -116.499150 89 486ft 0kts
18-Dec-17 17:35 33.818523 -116.499150 89 486ft 0kts
18-Dec-17 17:36 33.818523 -116.499150 89 486ft 0kts
18-Dec-17 17:37 33.818608 -116.498502 66 486ft 9kts
18-Dec-17 17:38 33.835843 -116.513011 324 951ft 167kts
18-Dec-17 17:39 33.876127 -116.550632 322 3708ft 211kts
18-Dec-17 17:40 33.936267 -116.564081 40 5936ft 271kts
18-Dec-17 17:41 33.942120 -116.476693 101 8970ft 290kts
18-Dec-17 17:42 33.926708 -116.395981 99 11080ft 314kts
18-Dec-17 17:43 33.901357 -116.265864 100 13075ft 362kts
18-Dec-17 17:44 33.878544 -116.149594 102 15800ft 357kts
18-Dec-17 17:45 33.859159 -116.052121 106 17418ft 368kts
18-Dec-17 17:46 33.830100 -115.905622 106 18634ft 407kts
18-Dec-17 17:47 33.807341 -115.791625 103 19549ft 430kts
18-Dec-17 17:48 33.779288 -115.651761 99 21442ft 430kts
18-Dec-17 17:49 33.746353 -115.488866 99 23178ft 437kts
18-Dec-17 17:50 33.717329 -115.346414 100 24405ft 446kts
18-Dec-17 17:51 33.692744 -115.226425 100 25347ft 453kts
18-Dec-17 17:52 33.662229 -115.078355 100 26419ft 461kts
18-Dec-17 17:53 33.625920 -114.903420 100 27581ft 469kts
18-Dec-17 17:54 33.601813 -114.775977 90 28333ft 470kts
18-Dec-17 17:55 33.619625 -114.623438 73 29163ft 466kts
18-Dec-17 17:56 33.645488 -114.471366 73 30212ft 465kts
18-Dec-17 17:57 33.670933 -114.320362 74 31180ft 465kts
18-Dec-17 17:58 33.692829 -114.189248 73 33002ft 439kts
18-Dec-17 17:59 33.715467 -114.053312 72 34956ft 413kts
18-Dec-17 18:00 33.738030 -113.916314 73 35235ft 417kts
18-Dec-17 18:01 33.760316 -113.780149 73 35238ft 416kts
18-Dec-17 18:02 33.782547 -113.643348 73 35236ft 417kts
18-Dec-17 18:03 33.804537 -113.507063 73 35234ft 417kts
18-Dec-17 18:04 33.826401 -113.370561 73 35234ft 417kts
18-Dec-17 18:05 33.846934 -113.241442 73 35225ft 417kts
18-Dec-17 18:06 33.868539 -113.104593 73 35227ft 417kts
18-Dec-17 18:07 33.890023 -112.967482 73 35237ft 418kts
18-Dec-17 18:08 33.911338 -112.830431 73 35242ft 418kts
18-Dec-17 18:09 33.932550 -112.692996 73 35245ft 418kts
18-Dec-17 18:10 33.953681 -112.555479 73 35214ft 419kts
18-Dec-17 18:11 33.974997 -112.415077 74 35237ft 438kts
18-Dec-17 18:12 33.996714 -112.270406 77 35239ft 458kts
18-Dec-17 18:13 34.019667 -112.116564 77 35267ft 477kts
18-Dec-17 18:14 34.043271 -111.957336 77 35266ft 483kts
18-Dec-17 18:15 34.066631 -111.798206 77 35265ft 483kts
18-Dec-17 18:16 34.089755 -111.639114 77 35293ft 483kts
18-Dec-17 18:17 34.112584 -111.480538 78 35297ft 484kts
18-Dec-17 18:18 34.134877 -111.324209 78 35297ft 484kts
18-Dec-17 18:19 34.157195 -111.166221 78 35290ft 484kts
18-Dec-17 18:20 34.179587 -111.006151 79 35289ft 484kts
18-Dec-17 18:21 34.201770 -110.846012 79 35293ft 484kts
18-Dec-17 18:22 34.223654 -110.686423 79 35333ft 483kts
18-Dec-17 18:23 34.245462 -110.525829 79 35311ft 484kts
18-Dec-17 18:24 34.267031 -110.365345 79 35317ft 484kts
18-Dec-17 18:25 34.287663 -110.210292 80 35315ft 484kts
18-Dec-17 18:26 34.308790 -110.049897 80 35313ft 484kts
18-Dec-17 18:27 34.329716 -109.889341 80 35314ft 484kts
18-Dec-17 18:28 34.350408 -109.728961 80 35288ft 484kts
18-Dec-17 18:29 34.370838 -109.569015 80 35320ft 482kts
18-Dec-17 18:30 34.390904 -109.409735 80 35291ft 480kts
18-Dec-17 18:31 34.410593 -109.252382 81 35269ft 479kts
18-Dec-17 18:32 34.432678 -109.093542 77 35264ft 479kts
18-Dec-17 18:33 34.459627 -108.936164 77 35278ft 479kts
18-Dec-17 18:34 34.486339 -108.777933 77 35289ft 480kts
18-Dec-17 18:35 34.513334 -108.619595 77 35296ft 480kts
18-Dec-17 18:36 34.539726 -108.461408 77 34731ft 481kts
18-Dec-17 18:37 34.565380 -108.306609 78 34280ft 482kts
18-Dec-17 18:38 34.590974 -108.151088 78 33750ft 481kts
18-Dec-17 18:39 34.617186 -107.990283 79 29241ft 489kts
18-Dec-17 18:40 34.642910 -107.831399 80 24793ft 470kts
18-Dec-17 18:41 34.676451 -107.681483 64 22609ft 457kts
18-Dec-17 18:42 34.733970 -107.547822 63 19919ft 432kts
18-Dec-17 18:43 34.766958 -107.415432 98 18190ft 397kts
18-Dec-17 18:44 34.753961 -107.287853 99 16287ft 383kts
18-Dec-17 18:45 34.742146 -107.160987 87 14250ft 376kts
18-Dec-17 18:46 34.785692 -107.051451 59 13127ft 343kts
18-Dec-17 18:47 34.847676 -106.972331 28 11797ft 324kts
18-Dec-17 18:48 34.920286 -106.924945 35 10575ft 271kts
18-Dec-17 18:49 34.970548 -106.864526 52 9158ft 247kts
18-Dec-17 18:50 35.012799 -106.806408 5 8069ft 229kts
18-Dec-17 18:51 35.041815 -106.856425 238 7654ft 216kts
18-Dec-17 18:52 34.996597 -106.850346 103 7602ft 209kts
18-Dec-17 18:53 35.020254 -106.787171 58 7351ft 201kts
18-Dec-17 18:54 35.045394 -106.730439 76 6611ft 188kts
18-Dec-17 18:55 35.044761 -106.672676 91 6172ft 154kts
18-Dec-17 18:56 35.044380 -106.620961 91 5414ft 153kts
18-Dec-17 18:57 35.045047 -106.596599 60 5337ft 26kts
18-Dec-17 18:58 35.045712 -106.601633 270 5330ft 20kts
18-Dec-17 18:59 35.045773 -106.609100 270 5324ft 22kts
18-Dec-17 19:00 35.046197 -106.613333 319 5324ft 3kts
18-Dec-17 19:01 35.046688 -106.616469 16 5324ft 6kts
18-Dec-17 19:02 35.046921 -106.616392 13 5324ft 0kts
18-Dec-17 19:03 35.046921 -106.616392 13 5324ft 0kts
18-Dec-17 19:04 35.046921 -106.616392 13 5324ft 0kts
18-Dec-17 19:05 35.046921 -106.616392 13 5324ft 0kts
18-Dec-17 19:06 35.046921 -106.616392 13 5324ft 0kts
18-Dec-17 19:07 35.046921 -106.616392 13 5324ft 0kts

Navigation Log

Ident Type
Flight plan parsing failed, navigation log unavailable